Stratfield Mortimer, United Kingdom
Current Conditions -  °F | °C
As of 6:50 PM on Thursday 23 Oct 2014 (Local Time) from EGVO Reporting Station
Drizzle Drizzle  
Wind Chill: 57°   Ceiling: 800
Heat Index: 57°   Visibility: 5mi
Dew Point: 55°   Wind: 13mph
Humidity: 94%   Direction: 200°SSW
Pressure: 30.03"   Gusts: NA
Location:  51.37°N, 1.03°W
Report Text: EGVO 231750Z 20011KT 8000 -DZ BKN008 BKN018 14/13 Q1017 GRN TEMPO 6000 -DZ SCT006 YLO1
Loading
Personal Weather Stations






























Interactive Weather Map
Tropical Storm Tracking
New forecast layout! Learn more

10-Day Weather Forecast

Advertisements
Track Severe Weather on mobile